Time;durP1;ratioP1;P1;durP2;ratioP2;P2;SDS_P1;SDS_P2;PMS_P1;PMS_P2;Temp;Humidity;BMP_temperature;BMP_pressure;BME280_temperature;BME280_humidity;BME280_pressure;Samples;Min_cycle;Max_cycle;Signal;HPM_P1;HPM_P2
2022/05/21 00:01:06;;;;;;;10.13;4.70;;;10.20;99.90;;;;;;5072261;28;20052;-75
2022/05/21 00:03:32;;;;;;;11.73;4.85;;;10.50;99.90;;;;;;5072038;28;20044;-76
2022/05/21 00:05:57;;;;;;;10.40;5.07;;;10.30;99.90;;;;;;5090340;28;20399;-72
2022/05/21 00:08:23;;;;;;;17.63;5.70;;;10.30;99.90;;;;;;5090309;28;20129;-74
2022/05/21 00:10:49;;;;;;;11.38;5.55;;;10.30;99.90;;;;;;5090144;28;20123;-77
2022/05/21 00:13:15;;;;;;;15.32;6.28;;;10.40;99.90;;;;;;5090210;28;20048;-76
2022/05/21 00:15:41;;;;;;;12.05;5.57;;;10.40;99.90;;;;;;5090113;28;20064;-75
2022/05/21 00:18:07;;;;;;;17.55;6.47;;;10.60;99.90;;;;;;5090475;28;20147;-77
2022/05/21 00:20:48;;;;;;;14.98;5.78;;;10.40;99.90;;;;;;5090380;28;20146;-76
2022/05/21 00:23:20;;;;;;;13.40;5.70;;;10.40;99.90;;;;;;5072258;28;20403;-75
2022/05/21 00:25:48;;;;;;;13.10;5.68;;;10.40;99.90;;;;;;5072138;28;20040;-76
2022/05/21 00:28:14;;;;;;;10.27;5.80;;;10.40;99.90;;;;;;5072107;28;20063;-77
2022/05/21 00:30:41;;;;;;;17.92;6.50;;;10.40;99.90;;;;;;5071651;28;20082;-77
2022/05/21 00:33:07;;;;;;;13.18;5.90;;;10.40;99.90;;;;;;5090069;28;20548;-75
2022/05/21 00:35:33;;;;;;;16.48;5.82;;;10.80;99.90;;;;;;5090158;28;20062;-76
2022/05/21 00:37:59;;;;;;;16.48;6.38;;;10.40;99.90;;;;;;5090462;28;20043;-73
2022/05/21 00:40:25;;;;;;;14.48;6.38;;;10.40;99.90;;;;;;5090430;28;20048;-77
2022/05/21 00:42:51;;;;;;;20.00;7.63;;;10.40;99.90;;;;;;5071763;28;20056;-77
2022/05/21 00:45:17;;;;;;;16.75;8.05;;;10.50;99.90;;;;;;5089788;28;20055;-77
2022/05/21 00:47:43;;;;;;;17.33;8.23;;;10.50;99.90;;;;;;5090244;28;20051;-75
2022/05/21 00:50:11;;;;;;;20.88;8.63;;;10.60;99.90;;;;;;5090369;28;20048;-76
2022/05/21 00:52:38;;;;;;;18.70;8.80;;;10.60;99.90;;;;;;5093900;28;20086;-77
2022/05/21 00:55:27;;;;;;;23.02;9.70;;;10.60;99.90;;;;;;5075285;28;20262;-77
2022/05/21 01:00:48;;;;;;;17.85;9.38;;;10.60;99.90;;;;;;5093261;28;20052;-76
2022/05/21 01:03:16;;;;;;;21.27;9.85;;;10.60;99.90;;;;;;5075531;28;20043;-76
2022/05/21 01:05:45;;;;;;;15.25;9.73;;;10.60;99.90;;;;;;5075308;28;20048;-76
2022/05/21 01:08:11;;;;;;;14.63;9.02;;;10.70;99.90;;;;;;5093477;28;20087;-77
2022/05/21 01:10:41;;;;;;;18.80;10.00;;;10.70;99.90;;;;;;5075350;28;20059;-73
2022/05/21 01:13:11;;;;;;;21.75;9.93;;;10.70;99.90;;;;;;5093161;28;20107;-76
2022/05/21 01:15:42;;;;;;;21.92;10.95;;;10.70;99.90;;;;;;5074937;28;20065;-75
2022/05/21 01:18:09;;;;;;;21.35;11.90;;;10.80;99.90;;;;;;5093194;28;20499;-74
2022/05/21 01:20:48;;;;;;;17.23;11.02;;;10.90;99.90;;;;;;5075466;28;20052;-75
2022/05/21 01:23:18;;;;;;;24.52;12.38;;;10.80;99.90;;;;;;5093508;28;20048;-75
2022/05/21 01:25:45;;;;;;;25.83;13.73;;;10.80;99.90;;;;;;5093408;28;20087;-75
2022/05/21 01:28:13;;;;;;;21.40;12.95;;;11.00;99.90;;;;;;5074892;28;20062;-74
2022/05/21 01:30:43;;;;;;;26.10;13.40;;;11.20;99.90;;;;;;5092928;28;20044;-77
2022/05/21 01:33:12;;;;;;;25.48;13.38;;;11.10;99.90;;;;;;5092845;28;20419;-77
2022/05/21 01:35:39;;;;;;;28.48;14.45;;;11.10;99.90;;;;;;5074833;28;20040;-76
2022/05/21 01:38:07;;;;;;;27.90;14.85;;;11.10;99.90;;;;;;5092893;28;20495;-75
2022/05/21 01:40:34;;;;;;;28.67;15.40;;;11.10;99.90;;;;;;5092916;28;20089;-76
2022/05/21 01:45:45;;;;;;;28.13;17.23;;;11.40;99.90;;;;;;5092921;28;20071;-79
2022/05/21 01:48:11;;;;;;;33.25;18.45;;;11.30;99.90;;;;;;5092531;28;20058;-76
2022/05/21 01:50:38;;;;;;;31.70;18.02;;;11.70;99.90;;;;;;5093022;28;20047;-77
2022/05/21 01:53:04;;;;;;;31.00;17.88;;;11.30;99.90;;;;;;5092741;28;20206;-77
2022/05/21 01:55:30;;;;;;;33.22;19.30;;;11.40;99.90;;;;;;5092765;28;20102;-75
2022/05/21 01:57:56;;;;;;;28.92;18.23;;;11.50;99.90;;;;;;5092852;28;20032;-76
2022/05/21 02:00:22;;;;;;;39.92;21.65;;;11.60;99.90;;;;;;5074504;28;20048;-76
2022/05/21 02:02:47;;;;;;;27.27;18.67;;;11.50;99.90;;;;;;5091945;28;20040;-75
2022/05/21 02:05:13;;;;;;;33.17;20.00;;;11.50;99.90;;;;;;5074352;28;20044;-74
2022/05/21 02:07:39;;;;;;;36.72;20.48;;;11.60;99.90;;;;;;5074154;28;20131;-76
2022/05/21 02:10:05;;;;;;;42.95;20.20;;;11.60;99.90;;;;;;5092284;28;20077;-75
2022/05/21 02:12:32;;;;;;;32.45;18.67;;;11.70;99.90;;;;;;5092240;28;20122;-78
2022/05/21 02:14:58;;;;;;;33.97;18.48;;;11.70;99.90;;;;;;5092317;28;20048;-77
2022/05/21 02:17:24;;;;;;;36.90;19.42;;;11.80;99.90;;;;;;5092384;28;20092;-74
2022/05/21 02:19:49;;;;;;;35.50;20.75;;;11.80;99.90;;;;;;5092074;28;20376;-78
2022/05/21 02:22:15;;;;;;;37.15;17.90;;;12.40;99.90;;;;;;5092122;28;20040;-75
2022/05/21 02:24:41;;;;;;;38.13;20.27;;;12.10;99.90;;;;;;5092174;28;20071;-78
2022/05/21 02:27:12;;;;;;;33.55;18.45;;;11.90;99.90;;;;;;5092012;28;20097;-76
2022/05/21 02:29:38;;;;;;;36.75;19.05;;;12.00;99.90;;;;;;5074082;28;20071;-77
2022/05/21 02:32:05;;;;;;;39.65;19.45;;;12.00;99.90;;;;;;5092138;28;20048;-76
2022/05/21 02:34:31;;;;;;;33.30;18.02;;;12.00;99.90;;;;;;5091863;28;20090;-74
2022/05/21 02:39:41;;;;;;;44.67;17.80;;;12.20;99.90;;;;;;5073635;28;20075;-75
2022/05/21 02:42:43;;;;;;;33.25;15.73;;;12.20;99.90;;;;;;5091688;28;20086;-77
2022/05/21 02:44:53;;;;;;;32.58;13.80;;;12.20;99.90;;;;;;5073763;28;20117;-75
2022/05/21 02:47:19;;;;;;;30.95;10.32;;;12.30;99.90;;;;;;5073607;28;20050;-79
2022/05/21 02:49:45;;;;;;;31.00;9.50;;;12.30;99.90;;;;;;5073376;28;20047;-75
2022/05/21 02:52:10;;;;;;;26.38;8.40;;;12.30;99.90;;;;;;5091589;28;20048;-74
2022/05/21 02:54:36;;;;;;;20.60;7.18;;;12.40;99.90;;;;;;5073181;28;20379;-73
2022/05/21 02:57:02;;;;;;;27.55;7.93;;;12.40;99.90;;;;;;5091695;28;20138;-76
2022/05/21 02:59:31;;;;;;;30.75;8.52;;;12.50;99.90;;;;;;5091521;28;20044;-75
2022/05/21 03:01:56;;;;;;;32.97;7.13;;;12.50;99.90;;;;;;5091865;28;20047;-82
2022/05/21 03:04:22;;;;;;;30.52;6.68;;;12.50;99.90;;;;;;5055850;28;20551;-78
2022/05/21 03:06:48;;;;;;;24.52;7.55;;;12.70;99.90;;;;;;5073017;28;20059;-81
2022/05/21 03:11:58;;;;;;;25.92;6.20;;;12.60;99.90;;;;;;5072910;28;20063;-78
2022/05/21 03:14:24;;;;;;;21.75;6.53;;;12.70;99.90;;;;;;5072429;28;20048;-76
2022/05/21 03:16:49;;;;;;;23.98;5.95;;;12.60;99.90;;;;;;5073025;28;20044;-76
2022/05/21 03:19:15;;;;;;;24.52;6.07;;;12.60;99.90;;;;;;5091105;28;20051;-77
2022/05/21 03:21:41;;;;;;;24.88;6.35;;;12.60;99.90;;;;;;5072770;28;20052;-77
2022/05/21 03:24:06;;;;;;;23.70;6.43;;;12.60;99.90;;;;;;5090747;28;20071;-77
2022/05/21 03:26:32;;;;;;;26.85;5.93;;;12.60;99.90;;;;;;5072711;28;20048;-73
2022/05/21 03:28:58;;;;;;;24.35;5.75;;;12.60;99.90;;;;;;5072907;28;20448;-77
2022/05/21 03:31:24;;;;;;;30.90;5.82;;;12.60;99.90;;;;;;5072661;28;20056;-80
2022/05/21 03:33:50;;;;;;;28.52;5.25;;;12.90;99.90;;;;;;5072545;28;20044;-77
2022/05/21 03:36:15;;;;;;;23.30;5.78;;;12.60;99.90;;;;;;5090586;28;20098;-76
2022/05/21 03:38:41;;;;;;;24.25;5.47;;;12.60;99.90;;;;;;5090847;28;20426;-74
2022/05/21 03:41:06;;;;;;;24.63;5.47;;;12.60;99.90;;;;;;5090739;28;20501;-78
2022/05/21 03:43:32;;;;;;;24.20;5.32;;;13.00;99.90;;;;;;5072649;28;20044;-73
2022/05/21 03:45:59;;;;;;;22.33;4.72;;;12.60;99.90;;;;;;5090858;28;20511;-74
2022/05/21 03:48:24;;;;;;;21.80;5.50;;;12.60;99.90;;;;;;5090551;28;20120;-79
2022/05/21 03:50:50;;;;;;;27.15;5.80;;;13.00;99.90;;;;;;5090411;28;20123;-73
2022/05/21 03:53:16;;;;;;;23.02;4.93;;;12.70;99.90;;;;;;5090494;28;20040;-79
2022/05/21 03:55:44;;;;;;;22.52;4.57;;;12.80;99.90;;;;;;5090432;28;20859;-74
2022/05/21 03:58:10;;;;;;;20.50;4.20;;;12.80;99.90;;;;;;5072198;28;20070;-75
2022/05/21 04:00:38;;;;;;;22.30;4.32;;;12.80;99.90;;;;;;5090511;28;20051;-73
2022/05/21 04:03:04;;;;;;;21.75;4.70;;;12.80;99.90;;;;;;5090724;28;20093;-75
2022/05/21 04:05:30;;;;;;;21.90;5.43;;;12.90;99.90;;;;;;5090570;28;20534;-76
2022/05/21 04:07:56;;;;;;;20.85;4.53;;;12.80;99.90;;;;;;5071913;28;20059;-78
2022/05/21 04:10:22;;;;;;;15.85;4.00;;;12.90;99.90;;;;;;5072501;28;20048;-76
2022/05/21 04:12:47;;;;;;;16.65;4.35;;;12.90;99.90;;;;;;5072489;28;20097;-81
2022/05/21 04:15:13;;;;;;;18.48;4.10;;;12.90;99.90;;;;;;5090428;28;20044;-77
2022/05/21 04:17:39;;;;;;;20.55;4.25;;;13.00;99.90;;;;;;5090382;28;20119;-73
2022/05/21 04:20:08;;;;;;;23.13;4.10;;;12.90;99.90;;;;;;5072304;28;20044;-82
2022/05/21 04:22:33;;;;;;;15.60;3.42;;;12.90;99.90;;;;;;5071817;28;20051;-74
2022/05/21 04:24:59;;;;;;;13.75;3.47;;;12.90;99.90;;;;;;5073728;28;20052;-74
2022/05/21 04:27:25;;;;;;;18.35;3.55;;;13.00;99.90;;;;;;5076474;28;20040;-81
2022/05/21 04:29:51;;;;;;;17.17;3.40;;;12.90;99.90;;;;;;5094447;28;20044;-73
2022/05/21 04:32:19;;;;;;;15.23;3.08;;;12.90;99.90;;;;;;5076405;28;20598;-75
2022/05/21 04:34:45;;;;;;;20.27;3.92;;;12.90;99.90;;;;;;5094450;28;20086;-76
2022/05/21 04:37:11;;;;;;;19.70;4.00;;;12.90;99.90;;;;;;5094090;28;20078;-71
2022/05/21 04:39:36;;;;;;;16.20;3.47;;;12.90;99.90;;;;;;5093933;28;20087;-76
2022/05/21 04:42:02;;;;;;;15.88;3.08;;;12.90;99.90;;;;;;5094246;28;20055;-76
2022/05/21 04:44:31;;;;;;;15.18;3.33;;;12.90;99.90;;;;;;5075691;28;20047;-73
2022/05/21 04:46:58;;;;;;;16.58;3.78;;;12.80;99.90;;;;;;5094281;28;20047;-76
2022/05/21 04:49:24;;;;;;;17.50;3.55;;;12.90;99.90;;;;;;5094084;28;20048;-73
2022/05/21 04:51:50;;;;;;;14.82;2.95;;;12.80;99.90;;;;;;5094175;28;20037;-76
2022/05/21 04:54:16;;;;;;;17.20;3.13;;;12.90;99.90;;;;;;5093603;28;20040;-75
2022/05/21 04:56:41;;;;;;;16.17;3.00;;;12.90;99.90;;;;;;5075539;28;20055;-73
2022/05/21 04:59:11;;;;;;;13.48;2.60;;;12.90;99.90;;;;;;5093787;28;20063;-74
2022/05/21 05:01:38;;;;;;;18.08;3.25;;;12.90;99.90;;;;;;5093828;28;20032;-75
2022/05/21 05:04:04;;;;;;;15.00;3.05;;;12.90;99.90;;;;;;5075325;28;20078;-73
2022/05/21 05:06:31;;;;;;;13.07;3.10;;;13.10;99.90;;;;;;5093727;28;20051;-76
2022/05/21 05:08:56;;;;;;;19.92;3.05;;;13.00;99.90;;;;;;5074694;28;20403;-75
2022/05/21 05:11:23;;;;;;;18.58;3.20;;;13.00;99.90;;;;;;5093375;28;20048;-78
2022/05/21 05:13:49;;;;;;;13.93;3.03;;;13.00;99.90;;;;;;5093485;28;20509;-71
2022/05/21 05:16:15;;;;;;;18.23;2.90;;;13.20;99.90;;;;;;5075469;28;20048;-79
2022/05/21 05:18:41;;;;;;;17.48;3.00;;;13.00;99.90;;;;;;5075326;28;20044;-81
2022/05/21 05:21:06;;;;;;;18.95;3.17;;;13.10;99.90;;;;;;5093758;28;20040;-76
2022/05/21 05:23:32;;;;;;;16.67;3.30;;;13.10;99.90;;;;;;5075131;28;20044;-76
2022/05/21 05:26:00;;;;;;;16.50;3.30;;;13.20;99.90;;;;;;5074714;28;20040;-77
2022/05/21 05:28:27;;;;;;;15.27;2.25;;;13.20;99.90;;;;;;5074944;28;20097;-76
2022/05/21 05:30:53;;;;;;;23.45;3.25;;;13.20;99.90;;;;;;5075063;28;20040;-76
2022/05/21 05:33:21;;;;;;;17.60;3.25;;;13.20;99.90;;;;;;5093243;28;20214;-78
2022/05/21 05:35:48;;;;;;;15.90;3.30;;;13.20;99.90;;;;;;5092639;28;20507;-79
2022/05/21 05:38:15;;;;;;;18.35;2.75;;;13.20;99.90;;;;;;5074966;28;20407;-77
2022/05/21 05:40:45;;;;;;;10.25;2.70;;;13.50;99.90;;;;;;5092557;28;20052;-75
2022/05/21 05:43:11;;;;;;;16.88;3.25;;;13.20;99.90;;;;;;5074746;28;20139;-76
2022/05/21 05:45:37;;;;;;;12.50;2.90;;;13.20;99.90;;;;;;5093147;28;20043;-78
2022/05/21 05:48:04;;;;;;;12.82;2.42;;;13.20;99.90;;;;;;5093111;28;20094;-82
2022/05/21 05:50:30;;;;;;;20.95;2.95;;;13.20;99.90;;;;;;5092796;28;20101;-72
2022/05/21 05:53:03;;;;;;;18.40;3.38;;;13.20;99.90;;;;;;5074702;28;20059;-78
2022/05/21 05:55:30;;;;;;;14.68;2.65;;;13.30;99.90;;;;;;5092468;28;20052;-79
2022/05/21 05:57:56;;;;;;;15.45;2.50;;;13.40;99.90;;;;;;5074834;28;20059;-75
2022/05/21 06:00:22;;;;;;;15.30;2.95;;;13.40;99.90;;;;;;5074799;28;20499;-77
2022/05/21 06:02:58;;;;;;;12.88;2.30;;;13.40;99.90;;;;;;5074580;28;20061;-78
2022/05/21 06:05:25;;;;;;;14.68;2.75;;;13.50;99.90;;;;;;5092617;28;20047;-78
2022/05/21 06:08:03;;;;;;;13.63;3.03;;;13.50;99.90;;;;;;5074090;28;20063;-79
2022/05/21 06:10:37;;;;;;;11.98;2.58;;;13.50;99.90;;;;;;5092371;28;20135;-78
2022/05/21 06:13:04;;;;;;;11.82;2.67;;;13.50;99.90;;;;;;5092516;28;20767;-77
2022/05/21 06:15:30;;;;;;;21.45;3.17;;;13.60;99.90;;;;;;5092463;28;20105;-79
2022/05/21 06:17:56;;;;;;;18.30;3.13;;;13.90;99.90;;;;;;5092307;28;20083;-77
2022/05/21 06:20:24;;;;;;;14.07;2.42;;;13.60;99.90;;;;;;5092411;28;20055;-75
2022/05/21 06:22:50;;;;;;;16.40;3.30;;;13.70;99.90;;;;;;5074011;28;20048;-79
2022/05/21 06:25:20;;;;;;;19.00;3.63;;;13.90;99.90;;;;;;5074074;28;20125;-76
2022/05/21 06:27:50;;;;;;;18.48;3.85;;;14.00;99.90;;;;;;5073852;28;20075;-81
2022/05/21 06:30:18;;;;;;;19.17;3.28;;;14.00;99.90;;;;;;5092269;28;20085;-75
2022/05/21 06:32:44;;;;;;;13.88;3.28;;;14.00;99.90;;;;;;5092042;28;20040;-80
2022/05/21 06:35:12;;;;;;;12.32;3.42;;;14.10;99.90;;;;;;5091742;28;20105;-73
2022/05/21 06:37:38;;;;;;;20.08;4.25;;;14.00;99.90;;;;;;5073913;28;20051;-78
2022/05/21 06:40:05;;;;;;;15.65;2.90;;;14.30;99.90;;;;;;5092251;28;20051;-78
2022/05/21 06:42:31;;;;;;;16.25;2.75;;;14.20;99.90;;;;;;5073453;28;20131;-80
2022/05/21 06:44:57;;;;;;;14.57;2.70;;;14.50;99.90;;;;;;5092086;28;20119;-74
2022/05/21 06:47:23;;;;;;;17.77;2.70;;;14.40;99.90;;;;;;5091423;28;20048;-76
2022/05/21 06:49:51;;;;;;;16.48;2.92;;;14.60;99.90;;;;;;5091096;28;20048;-74
2022/05/21 06:52:17;;;;;;;15.20;2.42;;;14.60;99.90;;;;;;5073658;28;20055;-81
2022/05/21 06:54:43;;;;;;;16.05;2.75;;;14.80;99.90;;;;;;5091584;28;20566;-77
2022/05/21 06:57:10;;;;;;;13.00;2.97;;;14.80;99.90;;;;;;5091454;28;20062;-74
2022/05/21 06:59:36;;;;;;;16.98;3.35;;;15.10;99.90;;;;;;5092054;28;20058;-77
2022/05/21 07:02:02;;;;;;;14.35;2.50;;;14.90;99.90;;;;;;5091585;28;20044;-79
2022/05/21 07:10:10;;;;;;;14.07;2.40;;;15.00;99.90;;;;;;5128936;27;20841;-80
2022/05/21 07:12:36;;;;;;;16.55;3.17;;;15.20;99.90;;;;;;5127277;28;20062;-78
2022/05/21 07:15:04;;;;;;;16.13;2.60;;;15.30;99.90;;;;;;5128790;27;20054;-78
2022/05/21 07:17:30;;;;;;;11.38;2.30;;;15.40;99.90;;;;;;5127331;27;20043;-76
2022/05/21 07:19:56;;;;;;;16.63;2.50;;;15.40;99.90;;;;;;5128739;27;20057;-76
2022/05/21 07:22:22;;;;;;;11.77;2.00;;;15.30;99.90;;;;;;5127369;28;20557;-80
2022/05/21 07:24:48;;;;;;;13.48;2.45;;;15.40;99.90;;;;;;5127451;28;20051;-79
2022/05/21 07:27:14;;;;;;;14.15;2.08;;;15.30;99.90;;;;;;5128614;27;20043;-75
2022/05/21 07:29:41;;;;;;;12.13;2.20;;;15.40;99.90;;;;;;5126739;28;20059;-78
2022/05/21 07:32:16;;;;;;;15.68;2.20;;;15.10;99.90;;;;;;5128249;27;20141;-81
2022/05/21 07:34:42;;;;;;;13.27;2.42;;;15.30;99.90;;;;;;5128682;27;20118;-84
2022/05/21 07:37:08;;;;;;;19.67;3.25;;;15.20;99.90;;;;;;5128478;28;20559;-76
2022/05/21 07:39:33;;;;;;;15.00;2.67;;;15.20;99.90;;;;;;5128410;27;20501;-80
2022/05/21 07:41:59;;;;;;;15.55;2.47;;;15.20;99.90;;;;;;5126949;27;20058;-76
2022/05/21 07:44:24;;;;;;;16.35;2.40;;;15.20;99.90;;;;;;5126730;27;20055;-78
2022/05/21 07:46:50;;;;;;;18.00;3.50;;;15.40;99.90;;;;;;5128055;27;20046;-81
2022/05/21 07:49:16;;;;;;;16.90;2.95;;;15.40;99.90;;;;;;5126828;28;20051;-77
2022/05/21 07:51:42;;;;;;;12.38;2.60;;;15.50;99.90;;;;;;5126826;27;20387;-79
2022/05/21 07:54:07;;;;;;;15.10;2.55;;;15.80;99.90;;;;;;5128135;27;20071;-79
2022/05/21 07:56:33;;;;;;;12.48;2.55;;;15.80;99.90;;;;;;5128293;27;20479;-75
2022/05/21 07:58:59;;;;;;;13.70;2.38;;;15.70;99.90;;;;;;5128010;27;20177;-75
2022/05/21 08:01:24;;;;;;;16.23;3.15;;;15.60;99.90;;;;;;5126709;27;20118;-78
2022/05/21 08:03:50;;;;;;;22.65;2.90;;;15.50;99.90;;;;;;5128164;27;20043;-80
2022/05/21 08:06:17;;;;;;;16.95;3.03;;;15.50;99.90;;;;;;5127913;27;20496;-83
2022/05/21 08:08:43;;;;;;;16.27;2.80;;;15.70;99.90;;;;;;5127673;27;20063;-74
2022/05/21 08:11:09;;;;;;;15.43;2.38;;;15.60;99.90;;;;;;5127782;27;20405;-78
2022/05/21 08:13:35;;;;;;;16.00;2.70;;;15.70;99.90;;;;;;5126494;28;20493;-75
2022/05/21 08:16:01;;;;;;;12.90;2.50;;;15.80;99.90;;;;;;5125939;27;20079;-79
2022/05/21 08:18:28;;;;;;;20.33;3.10;;;16.00;99.90;;;;;;5126261;27;20048;-72
2022/05/21 08:20:54;;;;;;;14.15;2.05;;;16.00;99.90;;;;;;5116760;27;20494;-75
2022/05/21 08:28:50;;;;;;;14.73;2.28;;;16.20;99.90;;;;;;5113509;28;19931;-80
2022/05/21 08:31:17;;;;;;;10.52;1.83;;;16.40;99.90;;;;;;5113362;28;20442;-77
2022/05/21 08:33:43;;;;;;;18.42;3.15;;;16.80;99.90;;;;;;5114079;28;20424;-81
2022/05/21 08:36:09;;;;;;;13.77;2.20;;;16.70;99.90;;;;;;5113715;28;20453;-74
2022/05/21 08:38:35;;;;;;;9.50;1.73;;;16.40;99.90;;;;;;5113652;28;20044;-79
2022/05/21 08:41:20;;;;;;;12.63;2.38;;;16.30;99.90;;;;;;5111899;28;20055;-74
2022/05/21 08:43:55;;;;;;;11.80;2.30;;;16.10;99.90;;;;;;5113487;28;20051;-81
2022/05/21 08:46:42;;;;;;;;;;;16.20;99.90;;;;;;5112384;28;20139;-73
2022/05/21 08:49:40;;;;;;;11.13;2.10;;;16.10;99.90;;;;;;5113333;28;19926;-76
2022/05/21 08:52:30;;;;;;;11.48;2.00;;;16.10;99.90;;;;;;5050044;28;20057;-72
2022/05/21 08:54:59;;;;;;;9.35;2.17;;;16.00;99.90;;;;;;5033295;28;20068;-75
2022/05/21 08:57:30;;;;;;;10.48;2.00;;;16.10;99.90;;;;;;5033694;28;20062;-79
2022/05/21 09:00:19;;;;;;;11.10;1.88;;;16.50;99.90;;;;;;5050016;28;20045;-77
2022/05/21 09:02:46;;;;;;;13.63;1.90;;;16.50;99.90;;;;;;5049089;28;20084;-77
2022/05/21 09:05:15;;;;;;;9.50;1.83;;;16.30;99.90;;;;;;5050011;28;20132;-81
2022/05/21 09:08:03;;;;;;;11.70;1.90;;;16.10;99.90;;;;;;5049752;28;20059;-77
2022/05/21 09:10:45;;;;;;;14.65;1.80;;;16.50;99.90;;;;;;5049536;28;20091;-76
2022/05/21 09:13:44;;;;;;;14.18;2.13;;;16.30;99.90;;;;;;5049746;28;20129;-73
2022/05/21 09:19:03;;;;;;;14.52;2.70;;;16.30;99.90;;;;;;5049551;28;20205;-76
2022/05/21 09:21:31;;;;;;;12.80;1.85;;;16.20;99.90;;;;;;5033332;28;20056;-74
2022/05/21 09:24:00;;;;;;;8.88;2.08;;;16.10;99.90;;;;;;5049464;28;20500;-81
2022/05/21 09:26:28;;;;;;;14.80;2.10;;;16.00;99.90;;;;;;5049717;28;20052;-76
2022/05/21 09:29:21;;;;;;;10.85;2.00;;;15.90;99.90;;;;;;5080983;28;20056;-82
2022/05/21 09:31:48;;;;;;;13.52;2.00;;;15.80;99.90;;;;;;5110133;28;20054;-78
2022/05/21 09:34:28;;;;;;;9.45;2.30;;;16.10;99.90;;;;;;5112251;28;20509;-79
2022/05/21 09:36:56;;;;;;;16.27;3.03;;;16.00;99.90;;;;;;5112634;28;20379;-82
2022/05/21 09:39:41;;;;;;;12.32;2.15;;;15.90;99.90;;;;;;5112453;28;20142;-80
2022/05/21 09:42:09;;;;;;;10.30;1.50;;;15.80;99.90;;;;;;5111373;28;20434;-79
2022/05/21 09:47:25;;;;;;;11.90;2.05;;;15.70;99.90;;;;;;5112271;28;20051;-82
2022/05/21 09:50:06;;;;;;;11.77;2.35;;;15.60;99.90;;;;;;5112079;28;20050;-80
2022/05/21 09:52:33;;;;;;;12.00;1.75;;;16.10;99.90;;;;;;5110530;28;20048;-80
2022/05/21 09:54:59;;;;;;;12.93;2.35;;;16.60;99.90;;;;;;5112052;28;20039;-80
2022/05/21 09:57:33;;;;;;;11.80;2.28;;;16.40;99.90;;;;;;5112180;28;20141;-79
2022/05/21 10:00:06;;;;;;;11.77;1.92;;;16.30;99.90;;;;;;5112064;28;20040;-77
2022/05/21 10:02:41;;;;;;;10.80;2.13;;;16.30;99.90;;;;;;5110580;28;20055;-80
2022/05/21 10:05:08;;;;;;;16.05;1.80;;;16.40;99.90;;;;;;5111391;28;20153;-79
2022/05/21 10:13:23;;;;;;;14.73;2.00;;;16.30;99.90;;;;;;5111934;28;20123;-80
2022/05/21 10:15:55;;;;;;;7.57;1.55;;;16.60;99.90;;;;;;5111430;28;20135;-77
2022/05/21 10:18:36;;;;;;;9.05;1.55;;;16.80;99.90;;;;;;5112052;28;20040;-83
2022/05/21 10:21:15;;;;;;;8.55;1.80;;;16.80;99.90;;;;;;5127217;27;20486;-80
2022/05/21 10:23:48;;;;;;;13.20;1.92;;;17.00;99.90;;;;;;5110504;28;20048;-80
2022/05/21 10:26:38;;;;;;;9.60;1.90;;;17.00;99.90;;;;;;5111358;28;20048;-79
2022/05/21 10:29:28;;;;;;;11.23;2.28;;;17.10;99.90;;;;;;5111612;28;20047;-80
2022/05/21 10:32:13;;;;;;;7.72;1.60;;;16.90;99.90;;;;;;5111637;28;20058;-80
2022/05/21 10:35:01;;;;;;;10.40;1.60;;;17.00;99.90;;;;;;5109298;28;20051;-78
2022/05/21 10:37:40;;;;;;;12.63;2.55;;;17.10;99.90;;;;;;5111775;28;20058;-80
2022/05/21 10:40:14;;;;;;;10.90;1.80;;;17.40;99.90;;;;;;5111569;28;20123;-80
2022/05/21 10:43:02;;;;;;;11.55;2.35;;;17.40;99.90;;;;;;5111289;28;20534;-81
2022/05/21 10:45:40;;;;;;;8.60;1.58;;;17.60;99.90;;;;;;5111315;28;20088;-82
2022/05/21 10:48:28;;;;;;;11.27;1.67;;;17.30;99.90;;;;;;5111048;28;20052;-77
2022/05/21 10:51:15;;;;;;;9.63;1.70;;;17.40;99.90;;;;;;5111005;28;20047;-79
2022/05/21 10:54:04;;;;;;;11.55;1.77;;;17.50;99.90;;;;;;5110963;28;20039;-80
2022/05/21 10:56:52;;;;;;;12.80;2.10;;;17.10;99.90;;;;;;5109826;28;20093;-78
2022/05/21 10:59:45;;;;;;;11.15;2.30;;;16.80;99.90;;;;;;5111103;28;20036;-80
2022/05/21 11:02:32;;;;;;;7.22;1.60;;;17.00;99.90;;;;;;5111018;28;20051;-78
2022/05/21 11:05:13;;;;;;;12.07;1.73;;;17.40;99.90;;;;;;5110802;28;20035;-80
2022/05/21 11:07:59;;;;;;;15.30;2.70;;;17.60;99.90;;;;;;5109438;28;20552;-78
2022/05/21 11:10:38;;;;;;;7.05;1.60;;;17.60;99.90;;;;;;5111039;28;20051;-78
2022/05/21 11:13:16;;;;;;;14.77;1.85;;;18.00;99.90;;;;;;5109585;28;20054;-79
2022/05/21 11:15:51;;;;;;;9.38;2.00;;;18.30;99.90;;;;;;5109518;28;20516;-76
2022/05/21 11:18:47;;;;;;;6.03;1.80;;;17.80;99.90;;;;;;5110859;28;20148;-79
2022/05/21 11:21:22;;;;;;;8.75;1.48;;;17.50;99.90;;;;;;5110284;28;20036;-72
2022/05/21 11:24:01;;;;;;;8.43;1.80;;;17.30;99.90;;;;;;5109435;28;20040;-76
2022/05/21 11:26:39;;;;;;;11.15;1.73;;;17.20;99.90;;;;;;5110864;28;20069;-80
2022/05/21 11:29:22;;;;;;;10.43;2.10;;;17.00;99.90;;;;;;5108415;28;20075;-79
2022/05/21 11:37:35;;;;;;;11.85;1.83;;;17.40;99.90;;;;;;5110354;28;20035;-74
2022/05/21 11:40:01;;;;;;;9.55;1.85;;;17.10;99.90;;;;;;5110259;28;20457;-78
2022/05/21 11:42:31;;;;;;;10.25;1.85;;;16.90;99.90;;;;;;5110538;28;20126;-77
2022/05/21 11:45:23;;;;;;;9.80;2.00;;;17.00;99.90;;;;;;5110647;28;20179;-79
2022/05/21 11:48:11;;;;;;;14.77;2.50;;;17.10;99.90;;;;;;5110554;28;20044;-75
2022/05/21 11:50:37;;;;;;;13.02;2.45;;;17.30;99.90;;;;;;5110205;28;20388;-77
2022/05/21 11:53:33;;;;;;;11.82;2.03;;;17.80;99.90;;;;;;5110414;28;20122;-76
2022/05/21 11:56:05;;;;;;;18.80;2.85;;;18.20;99.90;;;;;;5111646;28;20043;-76
2022/05/21 11:58:58;;;;;;;9.35;1.95;;;18.30;99.90;;;;;;5112923;28;20040;-76
2022/05/21 12:01:39;;;;;;;15.13;2.40;;;18.60;99.90;;;;;;5113289;28;20047;-75
2022/05/21 12:04:06;;;;;;;19.40;2.92;;;18.60;99.90;;;;;;5114307;28;20086;-73
2022/05/21 12:06:40;;;;;;;12.40;2.40;;;18.70;99.90;;;;;;5113765;28;20041;-72
2022/05/21 12:09:25;;;;;;;13.40;2.17;;;18.50;99.90;;;;;;5113443;28;20064;-76
2022/05/21 12:11:51;;;;;;;13.40;2.28;;;18.30;99.90;;;;;;5112833;28;20428;-74
2022/05/21 12:14:25;;;;;;;14.75;3.70;;;17.80;99.90;;;;;;5113907;28;20150;-77
2022/05/21 12:17:00;;;;;;;13.77;2.30;;;17.90;99.90;;;;;;5110462;28;20111;-72
2022/05/21 12:19:44;;;;;;;13.00;2.25;;;17.90;99.90;;;;;;5113075;28;20051;-79
2022/05/21 12:22:30;;;;;;;12.27;1.63;;;17.60;99.90;;;;;;5113067;28;20130;-72
2022/05/21 12:24:55;;;;;;;15.30;2.40;;;17.50;99.90;;;;;;5112432;28;20096;-77
2022/05/21 12:27:25;;;;;;;9.80;1.50;;;17.60;99.90;;;;;;5113752;28;20518;-75
2022/05/21 12:30:03;;;;;;;8.85;2.03;;;17.90;99.90;;;;;;5112343;28;20108;-80
2022/05/21 12:32:32;;;;;;;12.18;2.10;;;18.20;99.90;;;;;;5113256;28;20056;-75
2022/05/21 12:35:19;;;;;;;13.48;2.20;;;18.60;99.90;;;;;;5111942;28;20084;-76
2022/05/21 12:37:49;;;;;;;15.10;1.88;;;19.20;99.90;;;;;;5113749;28;20101;-81
2022/05/21 12:40:33;;;;;;;9.88;1.45;;;18.60;99.90;;;;;;5113010;28;20117;-81
2022/05/21 12:43:08;;;;;;;12.15;1.98;;;18.80;99.90;;;;;;5113531;28;20657;-78
2022/05/21 12:45:43;;;;;;;14.27;2.72;;;18.90;99.90;;;;;;5112096;28;20079;-74
2022/05/21 12:48:15;;;;;;;7.32;1.17;;;18.50;99.90;;;;;;5113076;28;20044;-81
2022/05/21 12:50:53;;;;;;;9.00;1.65;;;18.50;99.90;;;;;;5113334;28;20379;-74
2022/05/21 12:53:30;;;;;;;8.68;1.50;;;18.50;99.90;;;;;;5113240;28;20044;-80
2022/05/21 12:56:17;;;;;;;8.52;1.70;;;18.50;99.90;;;;;;5113375;28;20043;-80
2022/05/21 12:58:43;;;;;;;7.18;1.40;;;18.40;99.90;;;;;;5111597;28;20051;-80
2022/05/21 13:01:21;;;;;;;12.20;1.33;;;18.60;99.90;;;;;;5113144;28;20513;-76
2022/05/21 13:03:46;;;;;;;8.10;1.75;;;18.40;99.90;;;;;;5113057;28;20491;-76
2022/05/21 13:06:26;;;;;;;7.13;1.30;;;18.60;99.90;;;;;;5113409;28;20047;-78
2022/05/21 13:08:52;;;;;;;6.32;1.00;;;18.70;99.90;;;;;;5112073;28;20056;-77
2022/05/21 13:11:21;;;;;;;12.82;1.60;;;18.50;99.90;;;;;;5112546;28;20552;-74
2022/05/21 13:14:00;;;;;;;9.52;1.70;;;18.80;99.90;;;;;;5112955;28;20039;-74
2022/05/21 13:16:27;;;;;;;9.13;1.42;;;18.70;99.90;;;;;;5111596;28;20063;-79
2022/05/21 13:19:19;;;;;;;9.30;1.77;;;18.40;99.90;;;;;;5111088;28;20612;-80
2022/05/21 13:22:03;;;;;;;14.90;2.05;;;18.30;99.90;;;;;;5111166;28;20048;-75
2022/05/21 13:24:42;;;;;;;7.95;1.30;;;18.50;99.90;;;;;;5112203;28;20499;-79
2022/05/21 13:27:10;;;;;;;9.85;1.45;;;18.50;99.90;;;;;;5112380;28;20048;-80
2022/05/21 13:29:37;;;;;;;8.60;1.85;;;18.20;99.90;;;;;;5111137;28;20059;-77
2022/05/21 13:32:28;;;;;;;9.80;1.55;;;18.30;99.90;;;;;;5112671;28;20420;-74
2022/05/21 13:35:00;;;;;;;7.43;1.30;;;18.40;99.90;;;;;;5112677;28;20704;-78